Terminal Aerodrome Forecast
Issued by NWS Blacksburg, VA

Home | Current Version | Previous Version | Text Only | Print | Product List | Glossary On
Versions: 1 2 3 4 5 6 7 8 9 10 11 12 13 14 15 16 17 18 19 20 21 22 23 24 25 26 27 28 29 30 31 32 33 34 35 36 37 38 39 40 41 42 43 44 45 46 47 48
000
FTUS41 KRNK 030327 AAB
TAFDAN
TAF AMD
KDAN 030327Z 0303/0324 23007KT P6SM VCTS BKN025CB
      TEMPO 0303/0305 04006KT 2SM +TSRA BR OVC040CB
     FM030500 22005KT 6SM -SHRA VCTS SCT020CB OVC050
     FM030800 00000KT 5SM BR VCSH OVC020
     FM031500 26006KT P6SM OVC025
     FM031700 27008KT P6SM SCT035 BKN100=

USA.gov is the U.S. government's official web portal to all federal, state and local government web resources and services.